• Join FlightAware (Why Join?)
  • Login
  • US Flag 
09:59AM EST


 

Airport Tracker/Info


-or-


 

Live Flight TrackerFlight Track Log ✈ SWA1380 ✈ 10-May-2013 ✈ KMDW - KORF

Flight Track Log - Related Links

Times and Time Zones

All times are in EDT time to prevent confusion due to time zone crossing. See the SWA1380 flight status page for this flight to view local times or setup timezone preferences in your user account.

Time Position Orientation Groundspeed Altitude Reporting Facility
EDT Latitude Longitude Course Direction KTS MPH feet Rate Location/Type
02:13PM 41.8000 -87.7667 56° Northeast 141 162 2,000  Level Chicago TRACON
02:14PM 41.8167 -87.7333 56° Northeast 217 250 3,200 2,460 Climbing Chicago TRACON
02:17PM 41.6706 -87.6772 164° South 274 315 9,900 2,820 Climbing Chicago Center
02:18PM 41.5867 -87.6403 162° South 312 359 12,500 2,820 Climbing Chicago Center
02:19PM 41.4958 -87.6014 162° South 337 388 15,800 2,820 Climbing Chicago Center
02:20PM 41.3986 -87.5667 165° South 352 405 18,400 2,640 Climbing Chicago Center
02:21PM 41.2897 -87.5494 173° South 385 443 21,300 2,580 Climbing Chicago Center
02:22PM 41.1819 -87.5286 172° South 390 449 23,800 2,340 Climbing Chicago Center
02:23PM 41.0461 -87.4908 168° South 409 471 26,200 2,160 Climbing Chicago Center
02:24PM 40.9289 -87.4594 169° South 425 489 28,300 1,980 Climbing Chicago Center
02:25PM 40.8158 -87.3992 158° South 434 499 30,400 1,980 Climbing Chicago Center
02:26PM 40.7056 -87.3317 155° Southeast 438 504 32,500 1,920 Climbing Chicago Center
02:27PM 40.5964 -87.2647 155° Southeast 436 502 34,400 1,500 Climbing Chicago Center
02:28PM 40.4661 -87.1858 155° Southeast 431 496 35,700 1,200 Climbing Chicago Center
02:29PM 40.3525 -87.1164 155° Southeast 440 506 37,000 1,380 Climbing Chicago Center
02:30PM 40.2411 -87.0519 156° South 440 506 38,600 960 Climbing Chicago Center
02:31PM 40.1344 -86.9847 154° Southeast 431 496 39,000 180 Climbing Chicago Center
02:32PM 40.0697 -86.8886 131° Southeast 434 499 39,000  Level Indianapolis Center
02:33PM 39.9983 -86.7572 125° Southeast 441 507 39,000  Level Indianapolis Center
02:34PM 39.9292 -86.6250 124° Southeast 444 511 39,000  Level Indianapolis Center
02:35PM 39.8439 -86.4664 125° Southeast 447 514 39,000  Level Indianapolis Center
02:36PM 39.7717 -86.3333 125° Southeast 440 506 39,000  Level Indianapolis Center
02:37PM 39.7019 -86.2036 125° Southeast 437 503 39,000  Level Indianapolis Center
02:38PM 39.6292 -86.0678 125° Southeast 435 501 39,000  Level Indianapolis Center
02:39PM 39.5592 -85.9392 125° Southeast 437 503 39,000  Level Indianapolis Center
02:40PM 39.4889 -85.8111 125° Southeast 438 504 39,000  Level Indianapolis Center
02:41PM 39.4228 -85.6769 123° Southeast 445 512 39,000  Level Indianapolis Center
02:42PM 39.3811 -85.5161 108° East 473 544 39,000  Level Indianapolis Center
02:43PM 39.3406 -85.3553 108° East 474 545 39,000  Level Indianapolis Center
02:44PM 39.2911 -85.1614 108° East 476 548 39,000  Level Indianapolis Center
02:45PM 39.2483 -85.0003 109° East 475 547 39,000  Level Indianapolis Center
02:46PM 39.2047 -84.8336 109° East 480 552 39,000  Level Indianapolis Center
02:47PM 39.1617 -84.6700 109° East 479 551 39,000  Level Indianapolis Center
02:48PM 39.1167 -84.5064 109° East 482 555 39,000  Level Indianapolis Center
02:49PM 39.0736 -84.3406 108° East 485 558 39,000  Level Indianapolis Center
02:50PM 39.0297 -84.1764 109° East 485 558 39,000  Level Indianapolis Center
02:51PM 38.9764 -83.9822 109° East 489 563 39,000  Level Indianapolis Center
02:52PM 38.9319 -83.8156 109° East 491 565 39,000  Level Indianapolis Center
02:54PM 38.8856 -83.6481 110° East 495 570 39,000  Level Indianapolis Center
02:55PM 38.8397 -83.4797 109° East 499 574 39,000  Level Indianapolis Center
02:56PM 38.7933 -83.3111 109° East 500 575 39,000  Level Indianapolis Center
02:57PM 38.7411 -83.1228 110° East 500 575 39,000 -540 Level Indianapolis Center
02:59PM 38.6439 -82.7811 110° East 501 577 37,400 -900 Descending Indianapolis Center
03:00PM 38.5958 -82.6158 110° East 495 570 36,300 -1,020 Descending Indianapolis Center
03:01PM 38.5517 -82.4631 110° East 488 562 35,400 -1,080 Descending Indianapolis Center
03:02PM 38.4964 -82.2719 110° East 480 552 34,100 -720 Descending Indianapolis Center
03:03PM 38.4519 -82.1172 110° East 471 542 34,000 -60 Descending Indianapolis Center
03:04PM 38.4053 -81.9622 111° Southeast 470 541 34,000 -360 Level Indianapolis Center
03:05PM 38.3733 -81.8025 104° East 470 541 33,300 -480 Descending Indianapolis Center
03:06PM 38.3522 -81.6422 99° East 464 534 33,000 -180 Descending Indianapolis Center
03:07PM 38.3261 -81.4478 100° East 469 540 33,000 -180 Level Indianapolis Center
03:08PM 38.3019 -81.2842 101° East 474 545 32,700 -1,020 Descending Indianapolis Center
03:09PM 38.2722 -81.1222 103° East 474 545 31,000 -2,160 Descending Indianapolis Center
03:10PM 38.2433 -80.9586 103° East 477 549 28,300 -2,400 Descending Indianapolis Center
03:11PM 38.2147 -80.7983 103° East 467 537 26,100 -1,560 Descending Indianapolis Center
03:12PM 38.1881 -80.6431 102° East 451 519 25,100 -540 Descending Indianapolis Center
03:13PM 38.1550 -80.4592 103° East 445 512 25,000 -60 Descending Indianapolis Center
03:14PM 38.1247 -80.2956 103° East 439 505 25,000  Level Washington Center
03:15PM 38.0953 -80.1406 104° East 439 505 25,000  Level Washington Center
03:16PM 38.0675 -79.9914 103° East 439 505 25,000  Level Washington Center
03:17PM 38.0453 -79.8581 102° East 434 499 25,000 -300 Level Washington Center
03:18PM 38.0106 -79.7139 107° East 434 499 24,500 -720 Descending Washington Center
03:19PM 37.9758 -79.5722 107° East 429 494 23,600 -780 Descending Washington Center
03:20PM 37.9408 -79.4283 107° East 429 494 23,000 -360 Descending Washington Center
03:21PM 37.9019 -79.2708 107° East 429 494 23,000  Level Washington Center
03:22PM 37.8667 -79.1297 108° East 429 494 23,000  Level Washington Center
03:23PM 37.8311 -78.9914 108° East 424 488 23,000 -120 Level Washington Center
03:24PM 37.7953 -78.8506 108° East 424 488 22,800 -660 Descending Washington Center
03:25PM 37.7614 -78.7125 107° East 424 488 21,800 -900 Descending Washington Center
03:26PM 37.7311 -78.5903 107° East 418 481 21,000 -420 Descending Washington Center
03:27PM 37.6969 -78.4578 108° East 406 467 21,000  Level Washington Center
03:28PM 37.6603 -78.3253 109° East 406 467 21,000  Level Washington Center
03:29PM 37.6258 -78.1878 108° East 406 467 21,000  Level Washington Center
03:30PM 37.5869 -78.0528 110° East 411 473 21,000  Level Washington Center
03:31PM 37.5522 -77.9153 108° East 411 473 21,000 -480 Level Washington Center
03:32PM 37.5256 -77.7783 104° East 406 467 20,100 -960 Descending Washington Center
03:33PM 37.5133 -77.6392 96° East 401 461 19,100 -1,140 Descending Washington Center
03:34PM 37.5053 -77.5028 94° East 396 456 17,900 -1,920 Descending Washington Center
03:35PM 37.4969 -77.3692 94° East 391 450 15,400 -2,460 Descending Washington Center
03:36PM 37.4864 -77.2328 96° East 386 444 13,000 -1,740 Descending Washington Center
03:37PM 37.4775 -77.1069 95° East 377 434 11,900 -600 Descending Washington Center
03:38PM 37.4683 -77.0022 96° East 351 404 12,000 120 Climbing Washington Center
03:39PM 37.4650 -76.9367 94° East 347 399 12,100 -120 Climbing Washington Center
03:39PM 37.4594 -76.8608 95° East 348 400 11,900  Descending Washington Center
03:40PM 37.4558 -76.8161 96° East 349 402 12,100 60 Climbing Washington Center
03:40PM 37.4503 -76.7375 95° East 353 406 12,000 -120 Descending Washington Center
03:41PM 37.4489 -76.6722 92° East 353 406 12,000  Level Washington Center
03:41PM 37.4453 -76.6119 94° East 353 406 12,000  Level Washington Center
03:42PM 37.4414 -76.5492 94° East 355 409 12,000  Level Washington Center
03:42PM 37.4378 -76.4917 95° East 353 406 12,000  Level Washington Center
03:43PM 37.4342 -76.4158 93° East 355 409 12,000  Level Washington Center
03:43PM 37.4303 -76.3686 96° East 353 406 12,000 -540 Level Washington Center
03:44PM 37.4264 -76.3058 94° East 327 376 11,500 -1,140 Descending Washington Center
03:44PM 37.4225 -76.2561 96° East 336 387 10,900 -1,740 Descending Washington Center
03:45PM 37.4208 -76.1986 92° East 309 356 9,800 -1,980 Descending Washington Center
03:45PM 37.4169 -76.1436 95° East 319 367 8,900 -1,560 Descending Washington Center
03:46PM 37.3942 -76.1094 130° Southeast 283 326 8,200 -1,500 Descending Washington Center
03:46PM 37.3692 -76.0728 131° Southeast 264 304 7,500 -1,440 Descending Washington Center
03:47PM 37.3297 -76.0517 157° South 255 293 6,800 -1,320 Descending Washington Center
03:47PM 37.3006 -76.0539 183° South 226 260 6,200 -1,200 Descending Washington Center
03:48PM 37.2631 -76.0511 177° South 241 277 5,600 -840 Descending Washington Center
03:49PM 37.1961 -76.0558 183° South 238 274 5,000 -660 Descending Washington Center